This is the latest recevied weather packets stored in our database for station/object IU1DOF-3. If no packets are shown the sender has not sent any weather packets the latest 10 day(s).
| Time | Temp. | Humidity | Pressure | Rain* | Wind** | Luminosity | Snow |
|---|---|---|---|---|---|---|---|
| 1777800383 | 16.67° C | 61% | 1017.1 hPa | 0 mm | - | - | - |
| 1777799759 | 17.22° C | 58% | 1017.5 hPa | 0 mm | - | - | - |
| 1777799140 | 16.11° C | 63% | 1017.3 hPa | 0 mm | - | - | - |
| 1777798528 | 16.11° C | 61% | 1017.5 hPa | 0 mm | - | - | - |
| 1777797918 | 15.56° C | 59% | 1017.6 hPa | 0 mm | - | - | - |
| 1777797295 | 16.11° C | 57% | 1017.6 hPa | 0 mm | - | - | - |
| 1777796681 | 16.11° C | 54% | 1017.9 hPa | 0 mm | - | - | - |
| 1777796063 | 15° C | 60% | 1018 hPa | 0 mm | - | - | - |
| 1777795438 | 15° C | 63% | 1017.7 hPa | 0 mm | - | - | - |
| 1777794821 | 14.44° C | 66% | 1017.8 hPa | 0 mm | - | - | - |
| 1777794208 | 15° C | 61% | 1017.8 hPa | 0 mm | - | - | - |
| 1777793583 | 14.44° C | 63% | 1017.9 hPa | 0 mm | - | - | - |
| 1777792962 | 13.89° C | 65% | 1018.1 hPa | 0 mm | - | - | - |
| 1777792351 | 12.22° C | 75% | 1017.9 hPa | 0 mm | - | - | - |
| 1777791726 | 11.67° C | 80% | 1018.1 hPa | 0 mm | - | - | - |
| 1777791118 | 11.11° C | 74% | 1018.2 hPa | 0 mm | - | - | - |
| 1777790515 | 11.11° C | 77% | 1017.7 hPa | 0 mm | - | - | - |
| 1777789900 | 10.56° C | 81% | 1017.9 hPa | 0 mm | - | - | - |
| 1777789279 | 10° C | 88% | 1018.1 hPa | 0 mm | - | - | - |
| 1777788655 | 10° C | 86% | 1018 hPa | 0 mm | - | - | - |
| 1777788041 | 11.11° C | 83% | 1017.8 hPa | 0 mm | - | - | - |
| 1777787422 | 10.56° C | 77% | 1018 hPa | 0 mm | - | - | - |
| 1777786799 | 10° C | 84% | 1018.1 hPa | 0 mm | - | - | - |
| 1777786190 | 8.89° C | 91% | 1018.1 hPa | 0 mm | - | - | - |
| 1777785581 | 8.33° C | 89% | 1018.1 hPa | 0 mm | - | - | - |
* Rain latest hour (hover to see other rain measurements)
** Current wind speed in m/s (hover to see current wind gust speed)